sensor_id;sensor_type;location;lat;lon;timestamp;temperature;humidity
38265;DHT22;24062;47.480;8.768;2023-07-13T00:00:53;27.60;61.30
38265;DHT22;24062;47.480;8.768;2023-07-13T00:03:23;27.60;61.30
38265;DHT22;24062;47.480;8.768;2023-07-13T00:05:57;27.60;61.30
38265;DHT22;24062;47.480;8.768;2023-07-13T00:08:25;27.60;61.30
38265;DHT22;24062;47.480;8.768;2023-07-13T00:10:52;27.60;61.30
38265;DHT22;24062;47.480;8.768;2023-07-13T00:13:20;27.60;61.40
38265;DHT22;24062;47.480;8.768;2023-07-13T00:15:47;27.60;61.40
38265;DHT22;24062;47.480;8.768;2023-07-13T00:18:14;27.60;61.40
38265;DHT22;24062;47.480;8.768;2023-07-13T00:20:42;27.60;61.50
38265;DHT22;24062;47.480;8.768;2023-07-13T00:23:09;27.70;61.60
38265;DHT22;24062;47.480;8.768;2023-07-13T00:25:36;27.50;61.40
38265;DHT22;24062;47.480;8.768;2023-07-13T00:28:03;27.50;61.40
38265;DHT22;24062;47.480;8.768;2023-07-13T00:30:30;27.50;61.50
38265;DHT22;24062;47.480;8.768;2023-07-13T00:32:57;27.50;61.40
38265;DHT22;24062;47.480;8.768;2023-07-13T00:35:29;27.50;61.50
38265;DHT22;24062;47.480;8.768;2023-07-13T00:37:58;27.50;61.50
38265;DHT22;24062;47.480;8.768;2023-07-13T00:40:25;27.50;61.50
38265;DHT22;24062;47.480;8.768;2023-07-13T00:42:52;27.60;61.60
38265;DHT22;24062;47.480;8.768;2023-07-13T00:48:32;27.60;61.60
38265;DHT22;24062;47.480;8.768;2023-07-13T00:51:01;27.60;61.60
38265;DHT22;24062;47.480;8.768;2023-07-13T00:53:31;27.60;61.70
38265;DHT22;24062;47.480;8.768;2023-07-13T00:55:59;27.50;61.60
38265;DHT22;24062;47.480;8.768;2023-07-13T00:58:28;27.50;61.60
38265;DHT22;24062;47.480;8.768;2023-07-13T01:01:29;27.50;61.60
38265;DHT22;24062;47.480;8.768;2023-07-13T01:04:00;27.50;61.70
38265;DHT22;24062;47.480;8.768;2023-07-13T01:06:27;27.50;61.70
38265;DHT22;24062;47.480;8.768;2023-07-13T01:08:58;27.50;61.70
38265;DHT22;24062;47.480;8.768;2023-07-13T01:11:26;27.50;61.70
38265;DHT22;24062;47.480;8.768;2023-07-13T01:13:53;27.50;61.60
38265;DHT22;24062;47.480;8.768;2023-07-13T01:16:24;27.50;61.70
38265;DHT22;24062;47.480;8.768;2023-07-13T01:18:52;27.50;61.70
38265;DHT22;24062;47.480;8.768;2023-07-13T01:21:20;27.50;61.70
38265;DHT22;24062;47.480;8.768;2023-07-13T01:23:47;27.50;61.80
38265;DHT22;24062;47.480;8.768;2023-07-13T01:26:14;27.50;61.80
38265;DHT22;24062;47.480;8.768;2023-07-13T01:28:41;27.40;61.60
38265;DHT22;24062;47.480;8.768;2023-07-13T01:31:08;27.40;61.70
38265;DHT22;24062;47.480;8.768;2023-07-13T01:33:38;27.40;61.70
38265;DHT22;24062;47.480;8.768;2023-07-13T01:36:05;27.40;61.70
38265;DHT22;24062;47.480;8.768;2023-07-13T01:38:35;27.40;61.70
38265;DHT22;24062;47.480;8.768;2023-07-13T01:41:03;27.30;61.60
38265;DHT22;24062;47.480;8.768;2023-07-13T01:43:30;27.40;61.70
38265;DHT22;24062;47.480;8.768;2023-07-13T01:45:58;27.30;61.50
38265;DHT22;24062;47.480;8.768;2023-07-13T01:48:25;27.30;61.60
38265;DHT22;24062;47.480;8.768;2023-07-13T01:50:52;27.40;61.70
38265;DHT22;24062;47.480;8.768;2023-07-13T01:53:19;27.30;61.60
38265;DHT22;24062;47.480;8.768;2023-07-13T01:55:47;27.30;61.60
38265;DHT22;24062;47.480;8.768;2023-07-13T01:58:14;27.40;61.80
38265;DHT22;24062;47.480;8.768;2023-07-13T02:00:41;27.40;61.90
38265;DHT22;24062;47.480;8.768;2023-07-13T02:03:07;27.30;61.90
38265;DHT22;24062;47.480;8.768;2023-07-13T02:05:35;27.40;62.00
38265;DHT22;24062;47.480;8.768;2023-07-13T02:08:03;27.40;62.00
38265;DHT22;24062;47.480;8.768;2023-07-13T02:10:30;27.40;62.00
38265;DHT22;24062;47.480;8.768;2023-07-13T02:12:58;27.40;61.90
38265;DHT22;24062;47.480;8.768;2023-07-13T02:15:25;27.40;62.00
38265;DHT22;24062;47.480;8.768;2023-07-13T02:17:52;27.40;61.90
38265;DHT22;24062;47.480;8.768;2023-07-13T02:20:19;27.30;62.00
38265;DHT22;24062;47.480;8.768;2023-07-13T02:22:46;27.30;62.00
38265;DHT22;24062;47.480;8.768;2023-07-13T02:25:13;27.30;61.90
38265;DHT22;24062;47.480;8.768;2023-07-13T02:27:40;27.30;61.90
38265;DHT22;24062;47.480;8.768;2023-07-13T02:30:09;27.30;62.00
38265;DHT22;24062;47.480;8.768;2023-07-13T02:32:37;27.30;62.00
38265;DHT22;24062;47.480;8.768;2023-07-13T02:35:05;27.30;62.00
38265;DHT22;24062;47.480;8.768;2023-07-13T02:37:32;27.30;62.00
38265;DHT22;24062;47.480;8.768;2023-07-13T02:39:59;27.30;61.90
38265;DHT22;24062;47.480;8.768;2023-07-13T02:42:26;27.30;61.90
38265;DHT22;24062;47.480;8.768;2023-07-13T02:44:53;27.30;62.00
38265;DHT22;24062;47.480;8.768;2023-07-13T02:47:21;27.30;62.10
38265;DHT22;24062;47.480;8.768;2023-07-13T02:49:48;27.30;62.20
38265;DHT22;24062;47.480;8.768;2023-07-13T02:52:15;27.30;62.10
38265;DHT22;24062;47.480;8.768;2023-07-13T02:54:42;27.30;62.10
38265;DHT22;24062;47.480;8.768;2023-07-13T02:57:09;27.20;62.00
38265;DHT22;24062;47.480;8.768;2023-07-13T02:59:36;27.30;62.10
38265;DHT22;24062;47.480;8.768;2023-07-13T03:02:03;27.30;62.10
38265;DHT22;24062;47.480;8.768;2023-07-13T03:04:32;27.30;62.20
38265;DHT22;24062;47.480;8.768;2023-07-13T03:06:59;27.30;62.20
38265;DHT22;24062;47.480;8.768;2023-07-13T03:09:26;27.30;62.20
38265;DHT22;24062;47.480;8.768;2023-07-13T03:11:53;27.30;62.20
38265;DHT22;24062;47.480;8.768;2023-07-13T03:14:21;27.30;62.20
38265;DHT22;24062;47.480;8.768;2023-07-13T03:16:48;27.20;62.10
38265;DHT22;24062;47.480;8.768;2023-07-13T03:19:16;27.20;62.20
38265;DHT22;24062;47.480;8.768;2023-07-13T03:21:44;27.20;62.20
38265;DHT22;24062;47.480;8.768;2023-07-13T03:24:11;27.20;62.20
38265;DHT22;24062;47.480;8.768;2023-07-13T03:26:38;27.30;62.30
38265;DHT22;24062;47.480;8.768;2023-07-13T03:29:05;27.20;62.20
38265;DHT22;24062;47.480;8.768;2023-07-13T03:31:34;27.20;62.20
38265;DHT22;24062;47.480;8.768;2023-07-13T03:34:01;27.20;62.20
38265;DHT22;24062;47.480;8.768;2023-07-13T03:36:29;27.20;62.20
38265;DHT22;24062;47.480;8.768;2023-07-13T03:39:01;27.20;62.20
38265;DHT22;24062;47.480;8.768;2023-07-13T03:41:28;27.20;62.10
38265;DHT22;24062;47.480;8.768;2023-07-13T03:43:56;27.20;62.20
38265;DHT22;24062;47.480;8.768;2023-07-13T03:46:23;27.20;62.20
38265;DHT22;24062;47.480;8.768;2023-07-13T03:48:50;27.20;62.20
38265;DHT22;24062;47.480;8.768;2023-07-13T03:51:18;27.20;62.20
38265;DHT22;24062;47.480;8.768;2023-07-13T03:53:46;27.10;62.20
38265;DHT22;24062;47.480;8.768;2023-07-13T03:56:15;27.20;62.00
38265;DHT22;24062;47.480;8.768;2023-07-13T03:58:45;27.20;62.00
38265;DHT22;24062;47.480;8.768;2023-07-13T04:01:13;27.10;61.90
38265;DHT22;24062;47.480;8.768;2023-07-13T04:03:40;27.20;62.00
38265;DHT22;24062;47.480;8.768;2023-07-13T04:06:14;27.20;62.00
38265;DHT22;24062;47.480;8.768;2023-07-13T04:08:47;27.00;61.70
38265;DHT22;24062;47.480;8.768;2023-07-13T04:11:17;27.10;61.80
38265;DHT22;24062;47.480;8.768;2023-07-13T04:13:44;27.20;62.00
38265;DHT22;24062;47.480;8.768;2023-07-13T04:16:11;27.10;61.90
38265;DHT22;24062;47.480;8.768;2023-07-13T04:18:38;27.10;61.90
38265;DHT22;24062;47.480;8.768;2023-07-13T04:21:05;27.10;62.00
38265;DHT22;24062;47.480;8.768;2023-07-13T04:23:32;27.10;61.90
38265;DHT22;24062;47.480;8.768;2023-07-13T04:25:59;27.20;62.00
38265;DHT22;24062;47.480;8.768;2023-07-13T04:28:27;27.10;61.90
38265;DHT22;24062;47.480;8.768;2023-07-13T04:30:54;27.10;61.80
38265;DHT22;24062;47.480;8.768;2023-07-13T04:33:22;27.10;61.80
38265;DHT22;24062;47.480;8.768;2023-07-13T04:35:49;27.10;61.80
38265;DHT22;24062;47.480;8.768;2023-07-13T04:38:22;27.10;61.70
38265;DHT22;24062;47.480;8.768;2023-07-13T04:40:50;27.10;61.70
38265;DHT22;24062;47.480;8.768;2023-07-13T04:43:17;27.10;61.60
38265;DHT22;24062;47.480;8.768;2023-07-13T04:45:45;27.10;61.60
38265;DHT22;24062;47.480;8.768;2023-07-13T04:48:12;27.10;61.50
38265;DHT22;24062;47.480;8.768;2023-07-13T04:50:39;27.20;61.50
38265;DHT22;24062;47.480;8.768;2023-07-13T04:53:06;27.20;61.50
38265;DHT22;24062;47.480;8.768;2023-07-13T04:55:33;27.20;61.50
38265;DHT22;24062;47.480;8.768;2023-07-13T04:58:00;27.10;61.40
38265;DHT22;24062;47.480;8.768;2023-07-13T05:00:29;27.10;61.30
38265;DHT22;24062;47.480;8.768;2023-07-13T05:02:58;27.10;61.40
38265;DHT22;24062;47.480;8.768;2023-07-13T05:05:26;27.10;61.30
38265;DHT22;24062;47.480;8.768;2023-07-13T05:07:53;27.10;61.30
38265;DHT22;24062;47.480;8.768;2023-07-13T05:10:20;27.10;61.30
38265;DHT22;24062;47.480;8.768;2023-07-13T05:12:47;27.10;61.30
38265;DHT22;24062;47.480;8.768;2023-07-13T05:15:14;27.10;61.30
38265;DHT22;24062;47.480;8.768;2023-07-13T05:17:41;27.10;61.30
38265;DHT22;24062;47.480;8.768;2023-07-13T05:20:10;27.10;61.30
38265;DHT22;24062;47.480;8.768;2023-07-13T05:22:37;27.10;61.20
38265;DHT22;24062;47.480;8.768;2023-07-13T05:25:05;27.10;61.20
38265;DHT22;24062;47.480;8.768;2023-07-13T05:27:33;27.10;61.20
38265;DHT22;24062;47.480;8.768;2023-07-13T05:30:00;27.10;61.20
38265;DHT22;24062;47.480;8.768;2023-07-13T05:32:27;27.10;61.10
38265;DHT22;24062;47.480;8.768;2023-07-13T05:34:54;27.10;61.10
38265;DHT22;24062;47.480;8.768;2023-07-13T05:37:22;27.10;61.10
38265;DHT22;24062;47.480;8.768;2023-07-13T05:39:49;27.10;61.00
38265;DHT22;24062;47.480;8.768;2023-07-13T05:42:17;27.10;61.10
38265;DHT22;24062;47.480;8.768;2023-07-13T05:44:44;27.10;61.10
38265;DHT22;24062;47.480;8.768;2023-07-13T05:47:11;27.10;61.10
38265;DHT22;24062;47.480;8.768;2023-07-13T05:49:39;27.10;61.10
38265;DHT22;24062;47.480;8.768;2023-07-13T05:52:07;27.10;61.20
38265;DHT22;24062;47.480;8.768;2023-07-13T05:54:35;27.10;61.30
38265;DHT22;24062;47.480;8.768;2023-07-13T05:57:03;27.10;61.20
38265;DHT22;24062;47.480;8.768;2023-07-13T05:59:29;27.10;61.20
38265;DHT22;24062;47.480;8.768;2023-07-13T06:01:56;27.10;61.20
38265;DHT22;24062;47.480;8.768;2023-07-13T06:04:23;27.10;61.30
38265;DHT22;24062;47.480;8.768;2023-07-13T06:06:50;27.00;61.10
38265;DHT22;24062;47.480;8.768;2023-07-13T06:09:17;27.10;61.10
38265;DHT22;24062;47.480;8.768;2023-07-13T06:11:45;27.10;61.20
38265;DHT22;24062;47.480;8.768;2023-07-13T06:14:12;27.10;61.10
38265;DHT22;24062;47.480;8.768;2023-07-13T06:16:40;27.10;61.10
38265;DHT22;24062;47.480;8.768;2023-07-13T06:19:08;27.10;61.10
38265;DHT22;24062;47.480;8.768;2023-07-13T06:21:35;27.10;61.00
38265;DHT22;24062;47.480;8.768;2023-07-13T06:24:03;27.10;61.00
38265;DHT22;24062;47.480;8.768;2023-07-13T06:26:30;27.10;61.00
38265;DHT22;24062;47.480;8.768;2023-07-13T06:28:58;27.10;60.90
38265;DHT22;24062;47.480;8.768;2023-07-13T06:31:25;27.10;60.90
38265;DHT22;24062;47.480;8.768;2023-07-13T06:33:52;27.10;60.90
38265;DHT22;24062;47.480;8.768;2023-07-13T06:36:19;27.10;60.80
38265;DHT22;24062;47.480;8.768;2023-07-13T06:38:46;27.10;60.80
38265;DHT22;24062;47.480;8.768;2023-07-13T06:41:13;27.10;60.70
38265;DHT22;24062;47.480;8.768;2023-07-13T06:43:40;27.10;60.70
38265;DHT22;24062;47.480;8.768;2023-07-13T06:46:08;27.10;60.70
38265;DHT22;24062;47.480;8.768;2023-07-13T06:48:36;27.10;60.70
38265;DHT22;24062;47.480;8.768;2023-07-13T06:51:03;27.10;60.70
38265;DHT22;24062;47.480;8.768;2023-07-13T06:53:30;27.10;60.60
38265;DHT22;24062;47.480;8.768;2023-07-13T06:55:57;27.10;60.60
38265;DHT22;24062;47.480;8.768;2023-07-13T06:58:24;27.10;60.50
38265;DHT22;24062;47.480;8.768;2023-07-13T07:00:52;27.20;60.50
38265;DHT22;24062;47.480;8.768;2023-07-13T07:03:20;27.20;60.50
38265;DHT22;24062;47.480;8.768;2023-07-13T07:05:47;27.20;60.50
38265;DHT22;24062;47.480;8.768;2023-07-13T07:08:14;27.20;60.50
38265;DHT22;24062;47.480;8.768;2023-07-13T07:10:42;27.10;60.40
38265;DHT22;24062;47.480;8.768;2023-07-13T07:13:09;27.10;60.40
38265;DHT22;24062;47.480;8.768;2023-07-13T07:15:35;27.10;60.40
38265;DHT22;24062;47.480;8.768;2023-07-13T07:18:03;27.10;60.30
38265;DHT22;24062;47.480;8.768;2023-07-13T07:20:31;27.20;60.50
38265;DHT22;24062;47.480;8.768;2023-07-13T07:22:58;27.20;60.40
38265;DHT22;24062;47.480;8.768;2023-07-13T07:25:25;27.20;60.30
38265;DHT22;24062;47.480;8.768;2023-07-13T07:27:52;27.20;60.20
38265;DHT22;24062;47.480;8.768;2023-07-13T07:30:19;27.30;60.20
38265;DHT22;24062;47.480;8.768;2023-07-13T07:32:46;27.30;60.00
38265;DHT22;24062;47.480;8.768;2023-07-13T07:35:12;27.30;59.90
38265;DHT22;24062;47.480;8.768;2023-07-13T07:37:41;27.40;59.90
38265;DHT22;24062;47.480;8.768;2023-07-13T07:40:08;27.40;59.80
38265;DHT22;24062;47.480;8.768;2023-07-13T07:42:35;27.50;59.70
38265;DHT22;24062;47.480;8.768;2023-07-13T07:45:02;27.40;59.60
38265;DHT22;24062;47.480;8.768;2023-07-13T07:47:29;27.40;59.70
38265;DHT22;24062;47.480;8.768;2023-07-13T07:49:56;27.40;59.80
38265;DHT22;24062;47.480;8.768;2023-07-13T07:52:23;27.40;59.80
38265;DHT22;24062;47.480;8.768;2023-07-13T07:54:51;27.40;59.70
38265;DHT22;24062;47.480;8.768;2023-07-13T07:57:18;27.40;59.70
38265;DHT22;24062;47.480;8.768;2023-07-13T07:59:45;27.40;59.60
38265;DHT22;24062;47.480;8.768;2023-07-13T08:02:14;27.40;59.60
38265;DHT22;24062;47.480;8.768;2023-07-13T08:04:41;27.40;59.60
38265;DHT22;24062;47.480;8.768;2023-07-13T08:07:08;27.50;59.60
38265;DHT22;24062;47.480;8.768;2023-07-13T08:09:34;27.50;59.40
38265;DHT22;24062;47.480;8.768;2023-07-13T08:12:04;27.60;59.30
38265;DHT22;24062;47.480;8.768;2023-07-13T08:14:31;27.70;59.10
38265;DHT22;24062;47.480;8.768;2023-07-13T08:16:57;27.80;58.70
38265;DHT22;24062;47.480;8.768;2023-07-13T08:19:24;27.90;58.70
38265;DHT22;24062;47.480;8.768;2023-07-13T08:21:51;28.00;58.60
38265;DHT22;24062;47.480;8.768;2023-07-13T08:24:18;27.90;58.60
38265;DHT22;24062;47.480;8.768;2023-07-13T08:26:48;28.00;58.50
38265;DHT22;24062;47.480;8.768;2023-07-13T08:29:16;28.10;58.50
38265;DHT22;24062;47.480;8.768;2023-07-13T08:31:43;28.10;58.30
38265;DHT22;24062;47.480;8.768;2023-07-13T08:34:10;28.20;58.10
38265;DHT22;24062;47.480;8.768;2023-07-13T08:36:37;28.30;58.00
38265;DHT22;24062;47.480;8.768;2023-07-13T08:39:04;28.40;57.90
38265;DHT22;24062;47.480;8.768;2023-07-13T08:41:32;28.50;57.80
38265;DHT22;24062;47.480;8.768;2023-07-13T08:44:00;28.50;57.50
38265;DHT22;24062;47.480;8.768;2023-07-13T08:46:34;28.60;57.50
38265;DHT22;24062;47.480;8.768;2023-07-13T08:49:07;28.60;57.40
38265;DHT22;24062;47.480;8.768;2023-07-13T08:51:41;28.50;57.40
38265;DHT22;24062;47.480;8.768;2023-07-13T08:54:16;28.50;57.40
38265;DHT22;24062;47.480;8.768;2023-07-13T08:56:46;28.50;57.40
38265;DHT22;24062;47.480;8.768;2023-07-13T08:59:15;28.10;57.20
38265;DHT22;24062;47.480;8.768;2023-07-13T09:01:57;28.10;57.80
38265;DHT22;24062;47.480;8.768;2023-07-13T09:04:32;28.20;57.70
38265;DHT22;24062;47.480;8.768;2023-07-13T09:07:05;28.20;57.50
38265;DHT22;24062;47.480;8.768;2023-07-13T09:09:48;28.40;57.60
38265;DHT22;24062;47.480;8.768;2023-07-13T09:12:22;28.50;57.30
38265;DHT22;24062;47.480;8.768;2023-07-13T09:14:53;28.60;57.00
38265;DHT22;24062;47.480;8.768;2023-07-13T09:17:26;28.60;56.90
38265;DHT22;24062;47.480;8.768;2023-07-13T09:20:00;28.70;56.90
38265;DHT22;24062;47.480;8.768;2023-07-13T09:22:33;28.70;56.50
38265;DHT22;24062;47.480;8.768;2023-07-13T09:25:05;28.40;56.90
38265;DHT22;24062;47.480;8.768;2023-07-13T09:27:36;28.50;57.00
38265;DHT22;24062;47.480;8.768;2023-07-13T09:30:21;28.50;57.00
38265;DHT22;24062;47.480;8.768;2023-07-13T09:32:53;28.50;57.00
38265;DHT22;24062;47.480;8.768;2023-07-13T09:35:24;28.50;57.00
38265;DHT22;24062;47.480;8.768;2023-07-13T09:37:58;28.60;56.90
38265;DHT22;24062;47.480;8.768;2023-07-13T09:40:30;28.70;56.70
38265;DHT22;24062;47.480;8.768;2023-07-13T09:43:00;28.80;56.60
38265;DHT22;24062;47.480;8.768;2023-07-13T09:45:32;28.80;56.90
38265;DHT22;24062;47.480;8.768;2023-07-13T09:48:05;28.90;56.40
38265;DHT22;24062;47.480;8.768;2023-07-13T09:50:34;28.80;56.20
38265;DHT22;24062;47.480;8.768;2023-07-13T09:53:01;28.90;56.20
38265;DHT22;24062;47.480;8.768;2023-07-13T09:55:30;28.80;56.40
38265;DHT22;24062;47.480;8.768;2023-07-13T09:58:03;28.70;56.40
38265;DHT22;24062;47.480;8.768;2023-07-13T10:00:30;28.60;56.70
38265;DHT22;24062;47.480;8.768;2023-07-13T10:03:04;28.60;56.30
38265;DHT22;24062;47.480;8.768;2023-07-13T10:05:38;28.50;56.80
38265;DHT22;24062;47.480;8.768;2023-07-13T10:08:09;28.40;56.30
38265;DHT22;24062;47.480;8.768;2023-07-13T10:10:41;28.50;56.40
38265;DHT22;24062;47.480;8.768;2023-07-13T10:13:32;28.30;56.60
38265;DHT22;24062;47.480;8.768;2023-07-13T10:16:19;28.40;56.10
38265;DHT22;24062;47.480;8.768;2023-07-13T10:18:50;28.40;56.50
38265;DHT22;24062;47.480;8.768;2023-07-13T10:21:21;28.30;56.60
38265;DHT22;24062;47.480;8.768;2023-07-13T10:23:51;28.20;56.70
38265;DHT22;24062;47.480;8.768;2023-07-13T10:26:29;28.20;56.70
38265;DHT22;24062;47.480;8.768;2023-07-13T10:29:01;28.10;56.90
38265;DHT22;24062;47.480;8.768;2023-07-13T10:31:31;28.00;57.00
38265;DHT22;24062;47.480;8.768;2023-07-13T10:33:59;27.90;57.30
38265;DHT22;24062;47.480;8.768;2023-07-13T10:36:33;27.80;57.60
38265;DHT22;24062;47.480;8.768;2023-07-13T10:39:05;27.80;57.70
38265;DHT22;24062;47.480;8.768;2023-07-13T10:41:36;27.90;57.70
38265;DHT22;24062;47.480;8.768;2023-07-13T10:44:05;27.90;57.80
38265;DHT22;24062;47.480;8.768;2023-07-13T10:46:34;27.90;57.80
38265;DHT22;24062;47.480;8.768;2023-07-13T10:49:05;28.00;57.80
38265;DHT22;24062;47.480;8.768;2023-07-13T10:51:33;28.00;57.80
38265;DHT22;24062;47.480;8.768;2023-07-13T10:54:30;28.00;57.90
38265;DHT22;24062;47.480;8.768;2023-07-13T10:57:18;28.00;57.90
38265;DHT22;24062;47.480;8.768;2023-07-13T10:59:47;28.10;57.90
38265;DHT22;24062;47.480;8.768;2023-07-13T11:02:23;28.10;57.90
38265;DHT22;24062;47.480;8.768;2023-07-13T11:04:54;28.10;57.90
38265;DHT22;24062;47.480;8.768;2023-07-13T11:07:25;28.10;57.80
38265;DHT22;24062;47.480;8.768;2023-07-13T11:09:54;28.10;57.80
38265;DHT22;24062;47.480;8.768;2023-07-13T11:12:48;28.20;57.80
38265;DHT22;24062;47.480;8.768;2023-07-13T11:15:30;28.30;57.80
38265;DHT22;24062;47.480;8.768;2023-07-13T11:18:02;28.50;57.60
38265;DHT22;24062;47.480;8.768;2023-07-13T11:20:37;28.60;57.40
38265;DHT22;24062;47.480;8.768;2023-07-13T11:26:00;28.70;57.20
38265;DHT22;24062;47.480;8.768;2023-07-13T11:28:31;28.80;57.10
38265;DHT22;24062;47.480;8.768;2023-07-13T11:31:15;28.80;57.10
38265;DHT22;24062;47.480;8.768;2023-07-13T11:33:51;28.80;57.00
38265;DHT22;24062;47.480;8.768;2023-07-13T11:36:21;28.80;56.80
38265;DHT22;24062;47.480;8.768;2023-07-13T11:38:57;28.90;56.70
38265;DHT22;24062;47.480;8.768;2023-07-13T11:41:27;29.00;56.40
38265;DHT22;24062;47.480;8.768;2023-07-13T11:44:06;29.00;56.20
38265;DHT22;24062;47.480;8.768;2023-07-13T11:46:33;29.10;56.40
38265;DHT22;24062;47.480;8.768;2023-07-13T11:49:00;29.10;56.40
38265;DHT22;24062;47.480;8.768;2023-07-13T11:51:31;29.10;56.10
38265;DHT22;24062;47.480;8.768;2023-07-13T11:54:02;29.10;55.90
38265;DHT22;24062;47.480;8.768;2023-07-13T11:56:31;29.10;55.70
38265;DHT22;24062;47.480;8.768;2023-07-13T11:59:04;29.10;55.80
38265;DHT22;24062;47.480;8.768;2023-07-13T12:01:33;29.10;55.90
38265;DHT22;24062;47.480;8.768;2023-07-13T12:04:01;29.00;55.20
38265;DHT22;24062;47.480;8.768;2023-07-13T12:06:32;28.80;55.50
38265;DHT22;24062;47.480;8.768;2023-07-13T12:09:08;28.80;56.00
38265;DHT22;24062;47.480;8.768;2023-07-13T12:11:40;28.80;55.90
38265;DHT22;24062;47.480;8.768;2023-07-13T12:14:13;28.90;56.10
38265;DHT22;24062;47.480;8.768;2023-07-13T12:16:41;29.10;56.10
38265;DHT22;24062;47.480;8.768;2023-07-13T12:19:17;29.10;55.50
38265;DHT22;24062;47.480;8.768;2023-07-13T12:21:46;29.10;55.70
38265;DHT22;24062;47.480;8.768;2023-07-13T12:24:14;29.20;55.80
38265;DHT22;24062;47.480;8.768;2023-07-13T12:26:42;29.20;55.60
38265;DHT22;24062;47.480;8.768;2023-07-13T12:29:16;29.10;55.50
38265;DHT22;24062;47.480;8.768;2023-07-13T12:31:46;29.20;55.60
38265;DHT22;24062;47.480;8.768;2023-07-13T12:34:15;29.20;55.50
38265;DHT22;24062;47.480;8.768;2023-07-13T12:36:48;29.30;55.50
38265;DHT22;24062;47.480;8.768;2023-07-13T12:39:19;29.40;55.70
38265;DHT22;24062;47.480;8.768;2023-07-13T12:41:47;29.50;55.50
38265;DHT22;24062;47.480;8.768;2023-07-13T12:44:16;29.50;55.60
38265;DHT22;24062;47.480;8.768;2023-07-13T12:46:54;29.60;55.60
38265;DHT22;24062;47.480;8.768;2023-07-13T12:49:28;29.60;55.10
38265;DHT22;24062;47.480;8.768;2023-07-13T12:51:59;29.60;54.70
38265;DHT22;24062;47.480;8.768;2023-07-13T12:54:27;29.60;54.20
38265;DHT22;24062;47.480;8.768;2023-07-13T12:56:55;29.60;54.50
38265;DHT22;24062;47.480;8.768;2023-07-13T12:59:28;29.50;54.40
38265;DHT22;24062;47.480;8.768;2023-07-13T13:01:55;29.60;54.70
38265;DHT22;24062;47.480;8.768;2023-07-13T13:04:23;29.70;54.90
38265;DHT22;24062;47.480;8.768;2023-07-13T13:07:02;29.70;54.50
38265;DHT22;24062;47.480;8.768;2023-07-13T13:09:30;29.80;54.50
38265;DHT22;24062;47.480;8.768;2023-07-13T13:11:58;29.80;54.50
38265;DHT22;24062;47.480;8.768;2023-07-13T13:14:25;29.70;53.10
38265;DHT22;24062;47.480;8.768;2023-07-13T13:16:52;29.60;53.90
38265;DHT22;24062;47.480;8.768;2023-07-13T13:19:23;29.60;53.80
38265;DHT22;24062;47.480;8.768;2023-07-13T13:21:51;29.70;53.70
38265;DHT22;24062;47.480;8.768;2023-07-13T13:24:21;29.60;53.70
38265;DHT22;24062;47.480;8.768;2023-07-13T13:26:50;29.60;54.10
38265;DHT22;24062;47.480;8.768;2023-07-13T13:29:19;29.60;53.60
38265;DHT22;24062;47.480;8.768;2023-07-13T13:31:47;29.40;52.30
38265;DHT22;24062;47.480;8.768;2023-07-13T13:34:16;29.30;53.50
38265;DHT22;24062;47.480;8.768;2023-07-13T13:36:44;29.40;53.80
38265;DHT22;24062;47.480;8.768;2023-07-13T13:39:24;29.50;54.00
38265;DHT22;24062;47.480;8.768;2023-07-13T13:41:52;29.50;54.20
38265;DHT22;24062;47.480;8.768;2023-07-13T13:44:21;29.60;54.30
38265;DHT22;24062;47.480;8.768;2023-07-13T13:46:51;29.60;53.90
38265;DHT22;24062;47.480;8.768;2023-07-13T13:49:21;29.50;53.70
38265;DHT22;24062;47.480;8.768;2023-07-13T13:51:48;29.40;54.00
38265;DHT22;24062;47.480;8.768;2023-07-13T13:54:16;29.40;54.10
38265;DHT22;24062;47.480;8.768;2023-07-13T13:56:47;29.40;54.20
38265;DHT22;24062;47.480;8.768;2023-07-13T13:59:15;29.50;54.50
38265;DHT22;24062;47.480;8.768;2023-07-13T14:01:43;29.50;54.50
38265;DHT22;24062;47.480;8.768;2023-07-13T14:04:14;29.60;54.20
38265;DHT22;24062;47.480;8.768;2023-07-13T14:06:43;29.60;54.80
38265;DHT22;24062;47.480;8.768;2023-07-13T14:09:11;29.60;54.30
38265;DHT22;24062;47.480;8.768;2023-07-13T14:11:39;29.60;53.80
38265;DHT22;24062;47.480;8.768;2023-07-13T14:14:14;29.50;53.00
38265;DHT22;24062;47.480;8.768;2023-07-13T14:16:41;29.40;52.50
38265;DHT22;24062;47.480;8.768;2023-07-13T14:19:10;29.50;54.50
38265;DHT22;24062;47.480;8.768;2023-07-13T14:21:39;29.60;53.60
38265;DHT22;24062;47.480;8.768;2023-07-13T14:24:07;29.30;53.10
38265;DHT22;24062;47.480;8.768;2023-07-13T14:26:37;29.40;53.70
38265;DHT22;24062;47.480;8.768;2023-07-13T14:29:11;29.40;53.70
38265;DHT22;24062;47.480;8.768;2023-07-13T14:31:39;29.40;54.20
38265;DHT22;24062;47.480;8.768;2023-07-13T14:34:07;29.40;54.00
38265;DHT22;24062;47.480;8.768;2023-07-13T14:36:41;29.30;53.80
38265;DHT22;24062;47.480;8.768;2023-07-13T14:39:13;29.40;54.20
38265;DHT22;24062;47.480;8.768;2023-07-13T14:41:41;29.50;53.90
38265;DHT22;24062;47.480;8.768;2023-07-13T14:44:12;29.60;54.10
38265;DHT22;24062;47.480;8.768;2023-07-13T14:46:39;29.80;54.30
38265;DHT22;24062;47.480;8.768;2023-07-13T14:49:16;29.90;54.10
38265;DHT22;24062;47.480;8.768;2023-07-13T14:51:48;29.90;53.80
38265;DHT22;24062;47.480;8.768;2023-07-13T14:54:15;29.90;53.80
38265;DHT22;24062;47.480;8.768;2023-07-13T14:56:42;29.90;54.00
38265;DHT22;24062;47.480;8.768;2023-07-13T14:59:09;29.80;53.80
38265;DHT22;24062;47.480;8.768;2023-07-13T15:01:37;29.80;54.00
38265;DHT22;24062;47.480;8.768;2023-07-13T15:04:05;29.70;53.30
38265;DHT22;24062;47.480;8.768;2023-07-13T15:06:53;29.60;53.50
38265;DHT22;24062;47.480;8.768;2023-07-13T15:09:20;29.60;53.80
38265;DHT22;24062;47.480;8.768;2023-07-13T15:11:47;29.60;53.40
38265;DHT22;24062;47.480;8.768;2023-07-13T15:14:14;29.60;53.70
38265;DHT22;24062;47.480;8.768;2023-07-13T15:16:42;29.60;53.60
38265;DHT22;24062;47.480;8.768;2023-07-13T15:19:09;29.70;54.20
38265;DHT22;24062;47.480;8.768;2023-07-13T15:21:37;29.60;52.80
38265;DHT22;24062;47.480;8.768;2023-07-13T15:24:04;29.70;53.70
38265;DHT22;24062;47.480;8.768;2023-07-13T15:26:34;29.80;54.00
38265;DHT22;24062;47.480;8.768;2023-07-13T15:29:01;29.80;53.60
38265;DHT22;24062;47.480;8.768;2023-07-13T15:31:28;29.80;53.80
38265;DHT22;24062;47.480;8.768;2023-07-13T15:33:59;29.70;53.80
38265;DHT22;24062;47.480;8.768;2023-07-13T15:36:27;29.90;53.30
38265;DHT22;24062;47.480;8.768;2023-07-13T15:38:55;29.90;53.40
38265;DHT22;24062;47.480;8.768;2023-07-13T15:41:23;30.10;53.00
38265;DHT22;24062;47.480;8.768;2023-07-13T15:43:52;30.10;52.40
38265;DHT22;24062;47.480;8.768;2023-07-13T15:46:21;30.20;52.70
38265;DHT22;24062;47.480;8.768;2023-07-13T15:48:48;30.20;52.80